SBRF/REC METAR and TAF weather

Enter ICAO airport designator
Station Type Date Time Source
SBRF METAR 2024/04/17 17:00 UTC NOAA

SBRF 171700Z 16013KT 9999 SCT023 31/25 Q1009


Station Type Date Time Source
SBRF Decoded METAR 2024/04/17 17:00 UTC NOAA

Recife Aeroporto , Brazil (SBRF) 08-04S 034-51W
Apr 17, 2024 - 01:00 PM EDT / 2024.04.17 1700 UTC
Wind: from the SSE (160 degrees) at 15 MPH (13 KT):0
Visibility: greater than 7 mile(s):0
Sky conditions: partly cloudy
Temperature: 87 F (31 C)
Heat index: 97.5 F (36.4 C):1
Dew Point: 77 F (25 C)
Relative Humidity: 70%
Pressure (altimeter): 29.80 in. Hg (1009 hPa)
ob: SBRF 171700Z 16013KT 9999 SCT023 31/25 Q1009
cycle: 17

Station Type Date Time Source
SBRF TAF 2024/04/17 18:03 UTC NOAA